Time;durP1;ratioP1;P1;durP2;ratioP2;P2;SDS_P1;SDS_P2;PMS_P1;PMS_P2;Temp;Humidity;BMP_temperature;BMP_pressure;BME280_temperature;BME280_humidity;BME280_pressure;Samples;Min_cycle;Max_cycle;Signal;HPM_P1;HPM_P2
2021/01/11 00:00:25;;;;;;;13.05;8.77;;;;;;;5.65;76.75;101138.44;5023483;28;20048;-79
2021/01/11 00:02:55;;;;;;;8.57;7.75;;;;;;;5.58;76.55;101121.38;5019899;28;20022;-78
2021/01/11 00:05:20;;;;;;;16.40;8.32;;;;;;;5.57;77.11;101120.50;5036125;28;20053;-76
2021/01/11 00:08:04;;;;;;;14.02;9.98;;;;;;;5.56;76.75;101118.00;5047158;28;20387;-75
2021/01/11 00:10:40;;;;;;;14.70;8.60;;;;;;;5.54;77.61;101114.69;5053941;28;20047;-76
2021/01/11 00:13:20;;;;;;;8.27;7.57;;;;;;;5.50;77.69;101113.47;5049929;28;20025;-76
2021/01/11 00:15:46;;;;;;;9.65;7.47;;;;;;;5.52;77.50;101109.50;5039797;28;20032;-75
2021/01/11 00:18:14;;;;;;;10.15;7.05;;;;;;;5.50;77.39;101095.28;5046406;28;20452;-75
2021/01/11 00:20:40;;;;;;;10.40;7.38;;;;;;;5.57;77.84;101103.41;5037682;28;20047;-75
2021/01/11 00:23:08;;;;;;;15.90;7.40;;;;;;;5.56;77.42;101094.44;5054833;28;20028;-74
2021/01/11 00:25:41;;;;;;;9.75;7.43;;;;;;;5.57;77.46;101081.72;5058433;28;20067;-75
2021/01/11 00:32:01;;;;;;;6.28;5.78;;;;;;;5.61;77.85;101088.38;5057644;28;20157;-76
2021/01/11 00:34:54;;;;;;;5.75;5.10;;;;;;;5.61;77.20;101082.94;5038989;28;20519;-76
2021/01/11 00:37:20;;;;;;;7.45;6.15;;;;;;;5.54;78.14;101085.69;5046775;28;20031;-75
2021/01/11 00:39:45;;;;;;;7.22;6.57;;;;;;;5.52;78.01;101086.94;5044400;28;20041;-75
2021/01/11 00:42:17;;;;;;;9.10;6.10;;;;;;;5.46;77.95;101080.53;5053548;28;20045;-75
2021/01/11 00:44:43;;;;;;;12.90;6.03;;;;;;;5.42;78.48;101079.28;5043040;28;20150;-75
2021/01/11 00:47:11;;;;;;;6.45;5.60;;;;;;;5.39;78.64;101085.97;5044607;28;20112;-75
2021/01/11 00:49:39;;;;;;;6.45;5.35;;;;;;;5.45;78.74;101078.00;5032017;28;20021;-77
2021/01/11 00:52:05;;;;;;;8.25;5.03;;;;;;;5.48;78.71;101081.13;5044295;28;20029;-76
2021/01/11 00:54:31;;;;;;;7.78;5.55;;;;;;;5.53;78.33;101075.03;5041485;28;20033;-76
2021/01/11 00:56:56;;;;;;;4.53;4.30;;;;;;;5.58;78.39;101083.38;5030801;28;20047;-75
2021/01/11 00:59:30;;;;;;;5.10;4.70;;;;;;;5.60;78.33;101078.56;5042129;28;20115;-75
2021/01/11 01:02:01;;;;;;;4.78;4.40;;;;;;;5.62;78.54;101079.16;5041122;28;20059;-75
2021/01/11 01:04:27;;;;;;;4.68;4.28;;;;;;;5.62;78.87;101076.44;5049233;28;20055;-76
2021/01/11 01:07:03;;;;;;;5.13;4.57;;;;;;;5.63;78.46;101067.25;5047573;28;20144;-75
2021/01/11 01:09:30;;;;;;;4.88;4.47;;;;;;;5.65;78.19;101070.63;5054178;28;20051;-75
2021/01/11 01:11:56;;;;;;;5.55;5.03;;;;;;;5.66;78.58;101069.53;5068406;28;20046;-76
2021/01/11 01:14:28;;;;;;;4.25;3.85;;;;;;;5.64;78.74;101060.78;5056913;28;20025;-76
2021/01/11 01:16:54;;;;;;;4.25;3.80;;;;;;;5.66;78.43;101063.28;5045846;28;20047;-76
2021/01/11 01:19:32;;;;;;;4.60;4.20;;;;;;;5.63;78.93;101055.59;5051010;28;20111;-76
2021/01/11 01:22:05;;;;;;;4.07;3.78;;;;;;;5.66;78.74;101063.28;5030070;28;20535;-76
2021/01/11 01:24:36;;;;;;;5.60;4.28;;;;;;;5.65;78.92;101061.63;5058169;28;20035;-74
2021/01/11 01:27:05;;;;;;;4.35;3.40;;;;;;;5.71;78.91;101067.03;5028489;28;20712;-75
2021/01/11 01:29:33;;;;;;;3.67;3.38;;;;;;;5.68;79.71;101051.19;5039689;28;20094;-75
2021/01/11 01:32:01;;;;;;;4.13;3.75;;;;;;;5.65;79.91;101053.47;5054659;28;20032;-75
2021/01/11 01:34:37;;;;;;;4.88;3.92;;;;;;;5.57;79.90;101054.56;5032094;28;20094;-75
2021/01/11 01:37:06;;;;;;;3.78;3.45;;;;;;;5.47;80.47;101043.38;5039361;28;20044;-77
2021/01/11 01:39:45;;;;;;;3.88;3.60;;;;;;;5.53;80.70;101053.34;5071719;28;20035;-78
2021/01/11 01:42:13;;;;;;;3.50;3.30;;;;;;;5.51;81.28;101044.59;5075230;28;20469;-78
2021/01/11 01:44:38;;;;;;;3.97;2.70;;;;;;;5.54;80.75;101044.16;5033495;28;20021;-77
2021/01/11 01:47:07;;;;;;;4.97;2.80;;;;;;;5.52;80.85;101046.25;5062791;28;20029;-76
2021/01/11 01:49:36;;;;;;;7.40;2.72;;;;;;;5.60;81.30;101048.72;5042166;28;20116;-76
2021/01/11 01:52:08;;;;;;;2.80;2.60;;;;;;;5.62;81.30;101046.59;5057618;28;20111;-76
2021/01/11 01:54:45;;;;;;;4.32;3.20;;;;;;;5.67;80.63;101044.06;5048059;28;20124;-76
2021/01/11 01:57:14;;;;;;;2.80;2.70;;;;;;;5.72;81.21;101041.56;5056717;28;20032;-75
2021/01/11 01:59:48;;;;;;;7.10;2.65;;;;;;;5.84;80.62;101048.97;5049661;28;20088;-77
2021/01/11 02:02:26;;;;;;;2.37;2.13;;;;;;;5.85;80.79;101042.50;5056452;28;20407;-76
2021/01/11 02:04:52;;;;;;;2.15;2.05;;;;;;;5.84;80.57;101038.13;5072355;28;20636;-76
2021/01/11 02:07:45;;;;;;;5.22;2.20;;;;;;;5.89;80.91;101041.03;5061616;28;20028;-75
2021/01/11 02:10:32;;;;;;;2.63;2.40;;;;;;;5.92;80.62;101048.72;5054182;28;20021;-75
2021/01/11 02:13:15;;;;;;;4.68;2.33;;;;;;;5.95;80.73;101040.13;5066768;28;20131;-75
2021/01/11 02:16:06;;;;;;;1.95;1.58;;;;;;;6.02;80.47;101032.81;5043863;28;20025;-76
2021/01/11 02:18:45;;;;;;;2.25;2.08;;;;;;;6.06;80.39;101036.75;5069043;28;20016;-75
2021/01/11 02:21:47;;;;;;;2.53;2.33;;;;;;;6.10;80.44;101040.69;5047748;28;20382;-75
2021/01/11 02:24:44;;;;;;;1.75;1.30;;;;;;;6.16;79.99;101035.41;5071266;28;20064;-75
2021/01/11 02:27:16;;;;;;;1.77;1.67;;;;;;;6.19;80.22;101037.66;5065946;28;20462;-76
2021/01/11 02:30:32;;;;;;;3.20;1.63;;;;;;;6.19;79.77;101041.25;5063200;28;20031;-76
2021/01/11 02:33:16;;;;;;;1.92;1.70;;;;;;;6.19;80.38;101040.38;5007290;28;20573;-77
2021/01/11 02:35:50;;;;;;;3.30;1.95;;;;;;;6.19;80.35;101037.66;5015505;28;20040;-75
2021/01/11 02:38:22;;;;;;;1.88;1.77;;;;;;;6.19;80.10;101037.66;5028493;28;20470;-76
2021/01/11 02:40:48;;;;;;;2.35;1.58;;;;;;;6.17;80.54;101032.47;5058822;28;20023;-76
2021/01/11 02:43:23;;;;;;;1.80;1.70;;;;;;;6.18;80.37;101033.31;5075849;28;20165;-76
2021/01/11 02:46:08;;;;;;;;;;;;;;;;;;;;;
2021/01/11 02:48:52;;;;;;;8.02;1.83;;;;;;;6.25;80.33;101017.75;5064309;28;20021;-76
2021/01/11 02:51:39;;;;;;;1.55;1.25;;;;;;;6.18;80.18;101011.59;5064238;28;20025;-76
2021/01/11 02:54:18;;;;;;;1.83;1.73;;;;;;;6.20;80.29;101010.28;5056237;28;20418;-76
2021/01/11 02:57:04;;;;;;;2.67;1.80;;;;;;;6.14;80.35;100994.91;5060583;28;20405;-76
2021/01/11 03:00:00;;;;;;;5.97;1.65;;;;;;;6.17;80.14;100994.44;5050787;28;20024;-76
2021/01/11 03:02:31;;;;;;;2.28;1.63;;;;;;;6.08;80.31;100982.22;5066605;28;20390;-75
2021/01/11 03:04:58;;;;;;;1.23;1.23;;;;;;;6.16;80.39;101000.09;5060156;28;20049;-76
2021/01/11 03:07:30;;;;;;;4.80;1.90;;;;;;;6.17;80.86;100996.34;5040827;28;20071;-76
2021/01/11 03:10:02;;;;;;;3.17;1.42;;;;;;;6.11;81.08;100995.34;5044522;28;20033;-76
2021/01/11 03:12:31;;;;;;;1.55;1.15;;;;;;;6.15;80.76;100995.72;5067147;28;20062;-75
2021/01/11 03:15:02;;;;;;;0.98;0.98;;;;;;;6.21;81.20;101005.72;5059736;28;20024;-75
2021/01/11 03:17:37;;;;;;;1.10;1.10;;;;;;;6.23;80.82;101009.03;5038595;28;20115;-75
2021/01/11 03:20:09;;;;;;;1.30;1.20;;;;;;;6.14;81.52;100999.50;5044213;28;20033;-75
2021/01/11 03:22:46;;;;;;;4.78;1.88;;;;;;;6.10;81.91;100999.94;5064002;28;20032;-75
2021/01/11 03:25:31;;;;;;;4.90;1.10;;;;;;;6.08;82.75;100995.78;5031306;28;20043;-76
2021/01/11 03:27:59;;;;;;;1.30;1.20;;;;;;;5.99;82.87;100992.53;5039375;28;20052;-75
2021/01/11 03:30:30;;;;;;;0.93;0.93;;;;;;;5.93;83.35;100982.53;5050901;28;20029;-75
2021/01/11 03:32:56;;;;;;;1.35;1.25;;;;;;;5.87;83.66;100978.81;5064523;28;20029;-74
2021/01/11 03:35:28;;;;;;;4.55;1.00;;;;;;;5.90;83.36;100986.50;5045705;28;20062;-75
2021/01/11 03:38:04;;;;;;;1.10;1.10;;;;;;;5.85;83.93;100975.47;5050169;28;20110;-75
2021/01/11 03:40:30;;;;;;;0.95;0.95;;;;;;;5.83;83.61;100983.00;5052639;28;20485;-75
2021/01/11 03:43:13;;;;;;;2.13;1.10;;;;;;;5.91;83.28;100984.59;5071197;28;20028;-75
2021/01/11 03:45:38;;;;;;;0.65;0.65;;;;;;;5.87;83.94;100989.66;5067832;28;20028;-74
2021/01/11 03:48:09;;;;;;;1.15;1.13;;;;;;;5.88;83.99;100985.06;5027622;28;20041;-74
2021/01/11 03:51:04;;;;;;;0.98;0.98;;;;;;;5.92;83.61;100970.00;5059411;28;20412;-74
2021/01/11 03:53:50;;;;;;;1.40;0.90;;;;;;;5.90;83.50;100963.97;5044145;28;20048;-75
2021/01/11 03:56:29;;;;;;;1.23;1.13;;;;;;;5.86;83.82;100950.00;5047707;28;20527;-75
2021/01/11 03:59:06;;;;;;;0.88;0.68;;;;;;;5.87;83.37;100950.81;5073713;28;20032;-75
2021/01/11 04:01:39;;;;;;;1.05;1.05;;;;;;;5.95;84.01;100959.50;5074040;28;20111;-74
2021/01/11 04:04:13;;;;;;;4.00;0.93;;;;;;;5.94;84.06;100951.59;5045174;28;20028;-76
2021/01/11 04:06:52;;;;;;;1.10;1.00;;;;;;;6.02;83.14;100959.50;5067254;28;20100;-75
2021/01/11 04:09:18;;;;;;;0.85;0.85;;;;;;;6.02;83.60;100964.09;5060721;28;20028;-75
2021/01/11 04:11:44;;;;;;;2.80;0.60;;;;;;;6.03;83.98;100955.72;5046872;28;20027;-74
2021/01/11 04:14:09;;;;;;;0.65;0.65;;;;;;;6.03;83.89;100944.03;5057322;28;20033;-75
2021/01/11 04:16:43;;;;;;;1.13;0.70;;;;;;;6.07;82.94;100946.06;5045580;28;20195;-75
2021/01/11 04:19:10;;;;;;;2.70;1.10;;;;;;;6.06;83.09;100946.28;5057855;28;20032;-74
2021/01/11 04:21:36;;;;;;;0.60;0.60;;;;;;;6.07;82.61;100939.81;5061176;28;20315;-74
2021/01/11 04:24:03;;;;;;;0.40;0.40;;;;;;;6.09;82.82;100933.13;5056149;28;20127;-75
2021/01/11 04:26:33;;;;;;;4.95;0.77;;;;;;;6.08;83.19;100926.00;5067847;28;20066;-75
2021/01/11 04:28:59;;;;;;;2.38;0.82;;;;;;;6.02;82.58;100918.78;5045845;28;20032;-76
2021/01/11 04:31:25;;;;;;;1.15;0.50;;;;;;;6.04;82.71;100922.06;5046635;28;20493;-75
2021/01/11 04:33:56;;;;;;;0.50;0.50;;;;;;;6.06;82.73;100920.00;5037901;28;20044;-76
2021/01/11 04:36:27;;;;;;;0.65;0.65;;;;;;;6.14;82.00;100918.84;5063238;28;20032;-75
2021/01/11 04:38:55;;;;;;;1.05;0.77;;;;;;;6.16;82.27;100915.91;5030038;28;20045;-74
2021/01/11 04:41:33;;;;;;;2.17;0.45;;;;;;;6.15;81.91;100919.69;5064910;28;20024;-75
2021/01/11 04:44:01;;;;;;;5.57;0.63;;;;;;;6.17;81.93;100917.59;5070532;28;20025;-75
2021/01/11 04:46:38;;;;;;;2.33;0.52;;;;;;;6.18;81.83;100924.69;5047349;28;20043;-74
2021/01/11 04:49:07;;;;;;;1.45;0.65;;;;;;;6.15;81.80;100911.53;5063205;28;20027;-75
2021/01/11 04:51:33;;;;;;;0.40;0.40;;;;;;;6.14;82.42;100913.44;5055189;28;20021;-75
2021/01/11 04:54:02;;;;;;;0.60;0.60;;;;;;;6.15;82.28;100906.09;5061457;28;20036;-75
2021/01/11 04:56:30;;;;;;;0.60;0.60;;;;;;;6.16;82.34;100903.16;5060686;28;20021;-75
2021/01/11 04:59:09;;;;;;;0.88;0.70;;;;;;;6.15;81.85;100903.38;5075396;28;20067;-74
2021/01/11 05:01:35;;;;;;;0.40;0.40;;;;;;;6.13;82.37;100900.06;5075453;28;20021;-75
2021/01/11 05:04:02;;;;;;;0.35;0.35;;;;;;;6.16;82.13;100899.63;5072062;28;20023;-75
2021/01/11 05:06:31;;;;;;;0.43;0.43;;;;;;;6.15;82.45;100898.81;5044927;28;20066;-76
2021/01/11 05:09:06;;;;;;;0.55;0.55;;;;;;;6.14;82.75;100893.59;5059346;28;20044;-74
2021/01/11 05:11:34;;;;;;;0.40;0.40;;;;;;;6.09;82.29;100894.28;5070078;28;20024;-74
2021/01/11 05:14:00;;;;;;;0.75;0.75;;;;;;;6.06;82.63;100890.13;5056465;28;20040;-74
2021/01/11 05:16:26;;;;;;;0.57;0.50;;;;;;;6.02;83.28;100886.19;5068018;28;20025;-75
2021/01/11 05:19:23;;;;;;;2.03;0.70;;;;;;;6.06;83.16;100887.41;5068965;28;20078;-74
2021/01/11 05:21:52;;;;;;;0.45;0.45;;;;;;;5.99;83.29;100889.34;5061001;28;20029;-74
2021/01/11 05:24:37;;;;;;;0.65;0.65;;;;;;;6.01;83.18;100887.22;5059971;28;20052;-74
2021/01/11 05:27:08;;;;;;;0.65;0.63;;;;;;;5.99;83.18;100883.09;5040203;28;20048;-74
2021/01/11 05:29:38;;;;;;;0.50;0.30;;;;;;;5.98;83.13;100882.25;5066847;28;20111;-73
2021/01/11 05:32:09;;;;;;;0.30;0.30;;;;;;;6.03;83.58;100884.28;5059233;28;20123;-73
2021/01/11 05:34:56;;;;;;;0.32;0.32;;;;;;;6.04;83.74;100875.91;5039543;28;20031;-74
2021/01/11 05:38:00;;;;;;;0.77;0.50;;;;;;;6.07;83.18;100864.59;5048251;28;20112;-74
2021/01/11 05:40:28;;;;;;;0.60;0.40;;;;;;;6.07;83.04;100867.31;5018274;28;20025;-75
2021/01/11 05:43:03;;;;;;;0.38;0.38;;;;;;;6.03;83.74;100857.16;5062761;28;20032;-74
2021/01/11 05:45:34;;;;;;;0.30;0.30;;;;;;;5.99;83.29;100856.78;5056428;28;20111;-75
2021/01/11 05:48:30;;;;;;;0.47;0.40;;;;;;;5.97;83.85;100845.28;5036165;28;20024;-75
2021/01/11 05:51:01;;;;;;;1.17;0.35;;;;;;;5.89;83.90;100840.16;5058748;28;20059;-75
2021/01/11 05:53:29;;;;;;;2.72;0.95;;;;;;;5.91;84.23;100843.47;5070261;28;20370;-75
2021/01/11 05:56:06;;;;;;;0.40;0.40;;;;;;;5.88;84.13;100838.47;5028032;28;20043;-75
2021/01/11 05:58:34;;;;;;;2.72;0.20;;;;;;;5.92;84.00;100845.13;5042578;28;20130;-75
2021/01/11 06:01:05;;;;;;;1.15;0.35;;;;;;;5.94;84.25;100840.28;5034611;28;20052;-75
2021/01/11 06:03:34;;;;;;;0.25;0.25;;;;;;;6.00;83.84;100847.59;5057650;28;20054;-75
2021/01/11 06:06:05;;;;;;;3.33;0.30;;;;;;;6.04;84.03;100847.94;5063279;28;20072;-75
2021/01/11 06:08:32;;;;;;;0.40;0.40;;;;;;;6.04;84.05;100843.34;5040581;28;21211;-75
2021/01/11 06:11:06;;;;;;;2.72;0.40;;;;;;;6.00;83.73;100838.59;5035130;28;20033;-75
2021/01/11 06:13:33;;;;;;;3.72;0.77;;;;;;;6.01;83.16;100838.38;5052608;28;20033;-75
2021/01/11 06:16:04;;;;;;;2.92;0.50;;;;;;;6.04;83.78;100846.06;5048052;28;20378;-75
2021/01/11 06:18:32;;;;;;;4.03;0.30;;;;;;;6.07;83.50;100833.91;5051216;28;20033;-75
2021/01/11 06:20:58;;;;;;;1.08;0.32;;;;;;;6.06;83.46;100841.25;5036127;28;20033;-74
2021/01/11 06:23:29;;;;;;;1.00;0.40;;;;;;;6.04;82.98;100832.47;5054873;28;20028;-77
2021/01/11 06:26:01;;;;;;;0.30;0.30;;;;;;;6.07;82.72;100832.03;5049118;28;20055;-77
2021/01/11 06:28:32;;;;;;;0.22;0.22;;;;;;;6.06;83.33;100829.53;5051335;28;20024;-77
2021/01/11 06:31:14;;;;;;;2.00;0.20;;;;;;;6.06;83.38;100827.69;5041279;28;20032;-74
2021/01/11 06:33:40;;;;;;;0.30;0.30;;;;;;;6.04;83.47;100832.47;5045221;28;20545;-76
2021/01/11 06:36:31;;;;;;;1.10;0.30;;;;;;;6.00;83.44;100814.16;5037250;28;20033;-74
2021/01/11 06:39:06;;;;;;;0.20;0.20;;;;;;;6.05;82.82;100820.56;5034486;28;20102;-74
2021/01/11 06:41:41;;;;;;;0.45;0.30;;;;;;;6.11;83.18;100821.56;5047559;28;20408;-73
2021/01/11 06:44:08;;;;;;;0.50;0.38;;;;;;;6.19;83.16;100839.44;5039291;28;20025;-73
2021/01/11 06:46:46;;;;;;;0.80;0.40;;;;;;;6.22;82.43;100842.53;5043549;28;20047;-75
2021/01/11 06:49:26;;;;;;;1.20;0.55;;;;;;;6.27;82.67;100836.41;5042106;28;20062;-76
2021/01/11 06:52:03;;;;;;;0.20;0.20;;;;;;;6.28;82.33;100843.50;5045051;28;20114;-76
2021/01/11 06:54:43;;;;;;;1.58;0.75;;;;;;;6.31;81.96;100826.75;5036643;28;20027;-76
2021/01/11 06:57:23;;;;;;;1.60;0.40;;;;;;;6.32;81.99;100833.84;5041454;28;20356;-76
2021/01/11 06:59:56;;;;;;;0.40;0.20;;;;;;;6.35;82.08;100833.41;5045211;28;20055;-76
2021/01/11 07:02:28;;;;;;;0.85;0.35;;;;;;;6.37;81.90;100825.84;5039159;28;20313;-75
2021/01/11 07:04:56;;;;;;;0.47;0.30;;;;;;;6.40;81.71;100827.28;5027090;28;20077;-75
2021/01/11 07:07:24;;;;;;;0.93;0.50;;;;;;;6.42;81.65;100817.81;5020184;28;20054;-75
2021/01/11 07:09:59;;;;;;;3.08;0.50;;;;;;;6.42;81.49;100823.25;5021976;28;20494;-74
2021/01/11 07:12:30;;;;;;;4.78;0.40;;;;;;;6.47;80.95;100830.75;5032079;28;20416;-73
2021/01/11 07:15:00;;;;;;;0.45;0.20;;;;;;;6.50;81.53;100829.44;5006793;28;20117;-74
2021/01/11 07:17:48;;;;;;;3.42;0.30;;;;;;;6.53;81.19;100823.56;5018308;28;20104;-73
2021/01/11 07:20:36;;;;;;;0.75;0.30;;;;;;;6.53;81.18;100826.28;5015994;28;20124;-73
2021/01/11 07:23:04;;;;;;;1.75;0.68;;;;;;;6.53;80.89;100827.09;5008089;28;20108;-74
2021/01/11 07:25:31;;;;;;;0.73;0.30;;;;;;;6.56;80.77;100825.81;5013240;28;20384;-74
2021/01/11 07:28:01;;;;;;;0.10;0.10;;;;;;;6.59;80.35;100828.06;5029875;28;20602;-76
2021/01/11 07:30:35;;;;;;;0.50;0.32;;;;;;;6.55;81.34;100818.72;5038944;28;20103;-76
2021/01/11 07:33:13;;;;;;;2.53;0.20;;;;;;;6.63;81.47;100824.66;5016334;28;20044;-75
2021/01/11 07:35:48;;;;;;;0.73;0.40;;;;;;;6.60;80.77;100803.38;5025470;28;20045;-75
2021/01/11 07:38:23;;;;;;;;;;;;;;;;;;;;;
2021/01/11 07:41:01;;;;;;;0.50;0.40;;;;;;;6.72;81.32;100822.44;5048133;28;20025;-75
2021/01/11 07:43:32;;;;;;;0.55;0.30;;;;;;;6.64;81.12;100814.63;5031992;28;20431;-75
2021/01/11 07:46:31;;;;;;;0.10;0.10;;;;;;;6.77;80.30;100819.84;5042146;28;20075;-75
2021/01/11 07:49:13;;;;;;;0.30;0.20;;;;;;;6.73;80.77;100810.53;5030045;28;20064;-76
2021/01/11 07:51:47;;;;;;;0.32;0.30;;;;;;;6.71;80.78;100807.19;5033235;28;21437;-76
2021/01/11 07:54:27;;;;;;;4.22;0.63;;;;;;;6.88;80.73;100825.56;5042080;28;20475;-75
2021/01/11 07:57:15;;;;;;;1.75;0.47;;;;;;;6.85;80.97;100832.31;5050562;28;20038;-76
2021/01/11 08:00:04;;;;;;;2.58;0.57;;;;;;;6.80;80.17;100835.72;5037836;28;21155;-76
2021/01/11 08:02:36;;;;;;;2.67;0.52;;;;;;;6.77;80.34;100848.94;5043477;28;20025;-76
2021/01/11 08:05:04;;;;;;;2.00;0.30;;;;;;;6.72;80.93;100855.06;5041937;28;20040;-75
2021/01/11 08:07:42;;;;;;;0.43;0.40;;;;;;;6.66;80.89;100850.56;5070182;28;20025;-75
2021/01/11 08:10:22;;;;;;;1.05;0.85;;;;;;;6.68;81.43;100853.88;5043814;28;20024;-75
2021/01/11 08:12:47;;;;;;;1.08;0.52;;;;;;;6.59;81.36;100844.38;5037040;28;20043;-75
2021/01/11 08:15:19;;;;;;;2.35;0.40;;;;;;;6.69;81.71;100839.22;5056642;28;20024;-74
2021/01/11 08:17:47;;;;;;;0.55;0.35;;;;;;;6.70;81.37;100846.31;5063722;28;20029;-76
2021/01/11 08:20:24;;;;;;;2.65;0.40;;;;;;;6.68;81.38;100832.13;5055727;28;20454;-76
2021/01/11 08:22:55;;;;;;;4.28;0.50;;;;;;;6.69;81.04;100833.78;5061704;28;20173;-76
2021/01/11 08:25:22;;;;;;;1.17;0.55;;;;;;;6.76;80.74;100845.41;5060508;28;20070;-77
2021/01/11 08:27:57;;;;;;;0.73;0.50;;;;;;;6.79;81.02;100839.50;5064880;28;20040;-77
2021/01/11 08:30:31;;;;;;;1.77;0.55;;;;;;;6.78;80.96;100837.84;5041512;28;20097;-75
2021/01/11 08:32:59;;;;;;;0.75;0.38;;;;;;;6.74;80.18;100825.75;5057557;28;20456;-77
2021/01/11 08:35:57;;;;;;;0.50;0.40;;;;;;;6.80;80.06;100824.84;5036026;28;20032;-77
2021/01/11 08:38:20;;;;;;;1.08;0.30;;;;;;;6.96;79.95;100845.09;5041454;28;20453;-75
2021/01/11 08:40:55;;;;;;;2.38;0.60;;;;;;;6.88;80.60;100818.25;5047068;28;20293;-76
2021/01/11 08:43:36;;;;;;;0.30;0.20;;;;;;;6.96;79.57;100833.41;5067345;28;20028;-75
2021/01/11 08:46:03;;;;;;;0.47;0.28;;;;;;;7.04;78.91;100845.81;5047200;28;20270;-76
2021/01/11 08:48:31;;;;;;;3.05;0.35;;;;;;;6.98;79.32;100831.28;5042997;28;20445;-75
2021/01/11 08:50:58;;;;;;;0.65;0.65;;;;;;;7.04;79.44;100838.53;5040078;28;20048;-72
2021/01/11 08:53:37;;;;;;;3.08;0.40;;;;;;;7.01;78.75;100830.81;5058224;28;20497;-73
2021/01/11 08:56:12;;;;;;;0.60;0.38;;;;;;;7.11;79.39;100850.13;5061089;28;20060;-74
2021/01/11 08:58:46;;;;;;;1.75;0.38;;;;;;;7.13;78.37;100850.72;5048889;28;20089;-74
2021/01/11 09:01:26;;;;;;;1.77;0.50;;;;;;;7.07;78.33;100832.63;5071161;28;20056;-74
2021/01/11 09:03:58;;;;;;;4.03;1.08;;;;;;;7.13;78.80;100839.00;5043543;28;20036;-74
2021/01/11 09:06:40;;;;;;;0.63;0.32;;;;;;;7.24;78.39;100849.09;5048926;28;20031;-74
2021/01/11 09:09:28;;;;;;;1.30;0.32;;;;;;;7.23;78.46;100842.00;5070102;28;20017;-74
2021/01/11 09:12:06;;;;;;;1.65;0.70;;;;;;;7.19;78.05;100837.25;5072068;28;20016;-75
2021/01/11 09:14:32;;;;;;;2.47;0.63;;;;;;;7.29;77.87;100841.06;5047569;28;20028;-78
2021/01/11 09:17:04;;;;;;;0.40;0.20;;;;;;;7.35;77.24;100836.56;5034642;28;20052;-76
2021/01/11 09:19:38;;;;;;;2.00;0.60;;;;;;;7.39;77.80;100835.03;5063900;28;20377;-78
2021/01/11 09:26:34;;;;;;;1.35;0.45;;;;;;;7.68;76.16;100846.91;4957108;28;20283;-78
2021/01/11 09:29:00;;;;;;;0.28;0.20;;;;;;;7.69;75.91;100844.97;5017272;28;20032;-72
2021/01/11 09:31:25;;;;;;;1.85;0.40;;;;;;;7.83;76.85;100854.56;5038271;28;20020;-73
2021/01/11 09:33:53;;;;;;;2.10;0.77;;;;;;;7.85;75.86;100841.53;5010256;28;20064;-74
2021/01/11 09:36:24;;;;;;;0.38;0.20;;;;;;;7.99;76.48;100846.78;5045627;28;20115;-73
2021/01/11 09:38:50;;;;;;;5.00;0.30;;;;;;;8.11;74.85;100839.41;5044873;28;20032;-78
2021/01/11 09:41:18;;;;;;;0.73;0.30;;;;;;;8.17;75.40;100835.72;5047797;28;20488;-78
2021/01/11 09:43:46;;;;;;;2.47;0.38;;;;;;;8.32;74.45;100823.47;5046448;28;20040;-77
2021/01/11 09:46:15;;;;;;;1.30;0.60;;;;;;;8.47;74.03;100823.81;5045860;28;20032;-79
2021/01/11 09:48:40;;;;;;;8.23;0.52;;;;;;;8.58;73.83;100833.03;5064707;28;20363;-78
2021/01/11 09:51:06;;;;;;;0.77;0.40;;;;;;;8.60;73.14;100820.00;5060025;28;20031;-79
2021/01/11 09:53:33;;;;;;;1.98;0.57;;;;;;;8.66;73.55;100815.44;5064806;28;20529;-78
2021/01/11 09:55:59;;;;;;;3.80;0.25;;;;;;;8.83;72.97;100827.22;5054606;28;20035;-78
2021/01/11 09:58:24;;;;;;;2.17;0.20;;;;;;;8.77;73.38;100803.66;5045222;28;20037;-76
2021/01/11 10:00:50;;;;;;;0.40;0.30;;;;;;;8.90;72.86;100806.06;5024750;28;20039;-79
2021/01/11 10:03:34;;;;;;;2.22;0.40;;;;;;;8.98;72.45;100809.47;5046969;28;20071;-80
2021/01/11 10:06:05;;;;;;;2.72;0.38;;;;;;;8.89;72.19;100811.78;5045024;28;20080;-78
2021/01/11 10:08:35;;;;;;;1.73;0.47;;;;;;;8.88;71.96;100818.31;5033200;28;20044;-79
2021/01/11 10:11:12;;;;;;;1.65;0.30;;;;;;;8.92;72.23;100819.47;5038368;28;20025;-79
2021/01/11 10:13:37;;;;;;;1.38;0.40;;;;;;;8.83;72.08;100835.41;5061171;28;20031;-72
2021/01/11 10:16:04;;;;;;;2.95;0.40;;;;;;;8.69;71.96;100818.53;5052896;28;20119;-73
2021/01/11 10:18:29;;;;;;;8.90;0.88;;;;;;;8.73;71.95;100821.56;5017195;28;23374;-74
2021/01/11 10:20:55;;;;;;;0.20;0.10;;;;;;;8.75;72.92;100824.91;5061291;28;20021;-73
2021/01/11 10:23:20;;;;;;;1.95;0.40;;;;;;;8.76;72.05;100834.75;5057744;28;20470;-75
2021/01/11 10:25:46;;;;;;;1.83;0.55;;;;;;;8.62;71.81;100811.56;5042164;28;20073;-75
2021/01/11 10:28:12;;;;;;;5.03;0.98;;;;;;;8.60;71.98;100824.59;5061541;28;20031;-74
2021/01/11 10:30:38;;;;;;;2.28;0.93;;;;;;;8.70;71.42;100841.16;5016389;28;20044;-72
2021/01/11 10:33:11;;;;;;;4.32;1.27;;;;;;;8.71;72.21;100842.81;5061353;28;20429;-73
2021/01/11 10:35:36;;;;;;;4.03;1.40;;;;;;;8.59;71.80;100833.88;5062273;28;20037;-76
2021/01/11 10:38:04;;;;;;;5.25;1.35;;;;;;;8.62;72.47;100836.09;5061364;28;20130;-75
2021/01/11 10:40:32;;;;;;;2.97;1.10;;;;;;;8.59;72.24;100823.78;5042633;28;20466;-76
2021/01/11 10:42:57;;;;;;;3.25;1.20;;;;;;;8.87;72.45;100833.03;5062522;28;20017;-75
2021/01/11 10:45:23;;;;;;;4.03;1.15;;;;;;;8.95;71.56;100809.97;5061710;28;20386;-75
2021/01/11 10:47:50;;;;;;;1.50;1.40;;;;;;;9.00;71.78;100823.72;5061739;28;20152;-75
2021/01/11 10:50:16;;;;;;;4.65;2.47;;;;;;;8.97;71.93;100813.31;5027068;28;20375;-75
2021/01/11 10:52:41;;;;;;;4.53;2.78;;;;;;;8.86;71.33;100798.63;5058932;28;20052;-76
2021/01/11 10:55:07;;;;;;;2.88;2.05;;;;;;;9.01;72.01;100819.91;5022669;28;20516;-77
2021/01/11 10:57:35;;;;;;;5.13;2.55;;;;;;;8.89;72.28;100790.81;5044270;28;20498;-75
2021/01/11 11:00:01;;;;;;;1.10;0.85;;;;;;;9.02;72.75;100802.47;5060880;28;20032;-75
2021/01/11 11:02:29;;;;;;;5.88;0.73;;;;;;;8.90;72.71;100802.53;5058215;28;20021;-76
2021/01/11 11:04:54;;;;;;;0.30;0.30;;;;;;;8.77;72.76;100786.47;5045999;28;20028;-76
2021/01/11 11:07:35;;;;;;;2.25;0.43;;;;;;;8.86;73.53;100780.41;5026601;28;20374;-75
2021/01/11 11:10:04;;;;;;;2.15;0.30;;;;;;;8.77;73.89;100770.94;5047932;28;20044;-74
2021/01/11 11:12:30;;;;;;;0.40;0.40;;;;;;;8.73;73.39;100767.88;5058730;28;20030;-74
2021/01/11 11:14:59;;;;;;;0.35;0.30;;;;;;;8.71;73.67;100755.56;5047275;28;20024;-77
2021/01/11 11:17:31;;;;;;;1.42;0.25;;;;;;;8.70;73.12;100764.81;5049537;28;20367;-78
2021/01/11 11:19:58;;;;;;;0.20;0.20;;;;;;;8.71;73.28;100763.75;5064659;28;20029;-75
2021/01/11 11:22:24;;;;;;;0.30;0.30;;;;;;;8.59;73.53;100749.38;5039111;28;20029;-73
2021/01/11 11:24:50;;;;;;;1.58;0.40;;;;;;;8.56;73.40;100754.22;5052291;28;20025;-74
2021/01/11 11:27:16;;;;;;;4.32;0.68;;;;;;;8.51;74.17;100756.84;5064441;28;20025;-75
2021/01/11 11:29:41;;;;;;;5.57;0.63;;;;;;;8.44;73.88;100733.50;5064942;28;20471;-79
2021/01/11 11:32:07;;;;;;;3.95;0.30;;;;;;;8.50;73.77;100755.19;5036482;28;20422;-74
2021/01/11 11:34:32;;;;;;;0.63;0.10;;;;;;;8.53;73.79;100771.06;5052197;28;20066;-74
2021/01/11 11:36:58;;;;;;;0.22;0.20;;;;;;;8.54;74.79;100764.53;5039509;28;20143;-76
2021/01/11 11:39:24;;;;;;;0.82;0.75;;;;;;;8.44;74.47;100749.84;5048547;28;20031;-74
2021/01/11 11:41:54;;;;;;;2.55;0.60;;;;;;;8.55;73.93;100746.28;5048993;28;20491;-75
2021/01/11 11:44:20;;;;;;;1.33;0.90;;;;;;;8.61;74.38;100745.28;5057908;28;20036;-75
2021/01/11 11:46:45;;;;;;;1.70;1.00;;;;;;;8.61;74.27;100739.84;5032478;28;20047;-75
2021/01/11 11:49:11;;;;;;;1.40;0.60;;;;;;;8.61;74.25;100733.56;5070641;28;20020;-74
2021/01/11 11:51:39;;;;;;;1.52;0.73;;;;;;;8.63;74.23;100743.16;5009933;28;20025;-71
2021/01/11 11:54:10;;;;;;;2.50;0.40;;;;;;;8.69;73.35;100744.91;5054878;28;20043;-73
2021/01/11 11:56:41;;;;;;;1.15;0.32;;;;;;;8.68;73.96;100734.25;5058918;28;20447;-79
2021/01/11 11:59:08;;;;;;;0.20;0.20;;;;;;;8.50;73.41;100703.41;5061250;28;20025;-77
2021/01/11 12:01:38;;;;;;;4.57;0.40;;;;;;;8.47;74.07;100705.78;5042378;28;20485;-77
2021/01/11 12:04:04;;;;;;;0.57;0.40;;;;;;;8.53;73.56;100726.63;5029694;28;20363;-77
2021/01/11 12:06:39;;;;;;;0.93;0.40;;;;;;;8.59;73.84;100724.81;5060238;28;20076;-75
2021/01/11 12:09:12;;;;;;;4.60;0.67;;;;;;;8.48;74.08;100713.72;5055609;28;20051;-75